Tuscaloosa Regional Airport Tuscaloosa US
ICAO: KTCL
IATA: TCL
Category: Medium
Scheduled Services: No

Elevation: 170 ft
TransAlt. 18000 ft.

Airport Communications:
BIRMINGHAM APP/DEP:120.15
ASOS:132.825
CTAF:126.3
GND:121.8
ANNISTON RDO:122.2
TWR:126.3
UNICOM:122.95

KTCL Zoom In..

If you have problems with the map follow the link
https://www.worldairports.se/pages/airport.php?
ICAO=KTCL

Runways:

(A) RW 04 length 6499 ft width 150 ft
ILS 109.10 / hdg 41

(B) RW 11 length 4001 ft width 100 ft
---- / hdg 117

(C) RW 22 length 6499 ft width 150 ft
---- / hdg 221

(D) RW 29 length 4001 ft width 100 ft
---- / hdg 297

Location; KTCL
Day. 18 / Time. 03.53 Zulu
* Altimeter: 30.35
* Temperature: 17° c. 62.6°f.
* Wind from: KTC° Speed L kn.
Dewpoint: -02° c.
Visibility: 10 Statute Miles.
Clouds: Broken 4700 ft.
Clouds: Overcast 5500 ft.

KTCL 180353Z AUTO VRB05G17KT 10SM BKN047 OVC055 17/M02 A3035 RMK AO2 SLP277 T01671017


Wind From KTC°
Speed L kn.

 
 
jpsmedia worldairports.se 2020   terms of use